createdAt,value
2023-05-24T00:00:47.020Z,6.90
2023-05-24T00:03:39.700Z,6.70
2023-05-24T00:06:28.197Z,5.80
2023-05-24T00:09:17.459Z,6.20
2023-05-24T00:12:07.821Z,5.30
2023-05-24T00:14:55.586Z,5.70
2023-05-24T00:17:43.881Z,5.80
2023-05-24T00:20:32.455Z,5.90
2023-05-24T00:23:21.184Z,5.90
2023-05-24T00:26:09.233Z,5.90
2023-05-24T00:28:58.189Z,5.80
2023-05-24T00:31:46.833Z,5.90
2023-05-24T00:34:35.210Z,6.60
2023-05-24T00:37:23.789Z,6.10
2023-05-24T00:40:13.391Z,6.50
2023-05-24T00:43:01.545Z,6.00
2023-05-24T00:46:15.722Z,7.00
2023-05-24T00:49:04.344Z,6.70
2023-05-24T00:51:54.179Z,6.40
2023-05-24T00:54:43.190Z,6.40
2023-05-24T00:57:33.742Z,7.10
2023-05-24T01:00:22.049Z,6.50
2023-05-24T01:03:11.426Z,6.60
2023-05-24T01:06:06.665Z,6.80
2023-05-24T01:09:07.324Z,6.70
2023-05-24T01:12:23.343Z,7.30
2023-05-24T01:15:32.763Z,6.90
2023-05-24T01:18:31.973Z,6.40
2023-05-24T01:22:14.081Z,6.70
2023-05-24T01:25:30.155Z,6.80
2023-05-24T01:28:19.701Z,6.80
2023-05-24T01:31:08.678Z,6.80
2023-05-24T01:33:57.191Z,7.10
2023-05-24T01:36:45.880Z,6.90
2023-05-24T01:39:33.999Z,6.30
2023-05-24T01:42:32.704Z,7.50
2023-05-24T01:45:53.750Z,7.70
2023-05-24T01:49:06.009Z,8.00
2023-05-24T01:52:04.983Z,6.90
2023-05-24T01:54:56.620Z,6.60
2023-05-24T01:57:50.937Z,6.50
2023-05-24T02:00:41.065Z,6.60
2023-05-24T02:03:29.651Z,7.30
2023-05-24T02:06:18.370Z,6.70
2023-05-24T02:09:06.694Z,6.60
2023-05-24T02:11:55.626Z,6.70
2023-05-24T02:14:44.575Z,7.50
2023-05-24T02:17:33.306Z,6.80
2023-05-24T02:20:22.862Z,7.10
2023-05-24T02:23:11.525Z,7.20
2023-05-24T02:25:59.898Z,7.40
2023-05-24T02:28:48.557Z,7.30
2023-05-24T02:31:37.225Z,7.70
2023-05-24T02:34:25.687Z,7.70
2023-05-24T02:37:15.041Z,7.20
2023-05-24T02:40:03.129Z,7.40
2023-05-24T02:42:51.828Z,7.40
2023-05-24T02:45:41.390Z,7.00
2023-05-24T02:48:29.882Z,7.90
2023-05-24T02:51:18.032Z,7.60
2023-05-24T02:54:07.332Z,7.40
2023-05-24T02:56:57.080Z,7.00
2023-05-24T02:59:46.766Z,6.90
2023-05-24T03:02:38.825Z,7.10
2023-05-24T03:05:27.267Z,7.00
2023-05-24T03:08:16.937Z,7.30
2023-05-24T03:11:07.939Z,7.30
2023-05-24T03:13:56.936Z,6.80
2023-05-24T03:16:46.490Z,6.30
2023-05-24T03:19:35.663Z,6.60
2023-05-24T03:22:25.578Z,6.80
2023-05-24T03:25:14.815Z,7.10
2023-05-24T03:28:03.411Z,6.80
2023-05-24T03:30:54.598Z,6.70
2023-05-24T03:33:42.559Z,7.00
2023-05-24T03:36:31.060Z,7.10
2023-05-24T03:39:19.454Z,7.20
2023-05-24T03:42:23.698Z,7.10
2023-05-24T03:45:16.089Z,6.80
2023-05-24T03:48:08.494Z,7.20
2023-05-24T03:50:56.659Z,7.00
2023-05-24T03:53:45.657Z,6.80
2023-05-24T03:56:34.616Z,7.00
2023-05-24T03:59:23.082Z,6.90
2023-05-24T04:02:11.352Z,6.50
2023-05-24T04:05:01.907Z,7.40
2023-05-24T04:07:51.078Z,7.70
2023-05-24T04:10:41.463Z,6.80
2023-05-24T04:13:32.178Z,7.80
2023-05-24T04:16:20.621Z,7.40
2023-05-24T04:19:08.747Z,7.20
2023-05-24T04:21:57.964Z,6.50
2023-05-24T04:24:47.944Z,6.30
2023-05-24T04:27:43.665Z,7.40
2023-05-24T04:30:46.413Z,6.60
2023-05-24T04:33:40.611Z,7.50
2023-05-24T04:36:29.180Z,7.30
2023-05-24T04:39:19.013Z,6.50
2023-05-24T04:42:08.503Z,6.00
2023-05-24T04:44:57.210Z,6.10
2023-05-24T04:47:46.605Z,7.00
2023-05-24T04:50:37.465Z,6.90
2023-05-24T04:53:26.390Z,6.50
2023-05-24T04:56:17.150Z,6.20
2023-05-24T04:59:06.762Z,6.60
2023-05-24T05:01:56.748Z,6.60
2023-05-24T05:04:47.272Z,6.30
2023-05-24T05:07:35.681Z,6.30
2023-05-24T05:10:25.608Z,6.70
2023-05-24T05:13:16.511Z,6.80
2023-05-24T05:16:05.656Z,7.00
2023-05-24T05:18:53.650Z,6.40
2023-05-24T05:21:42.148Z,6.70
2023-05-24T05:24:31.671Z,6.40
2023-05-24T05:27:20.295Z,6.10
2023-05-24T05:30:10.150Z,5.90
2023-05-24T05:32:58.926Z,6.40
2023-05-24T05:35:47.136Z,5.90
2023-05-24T05:38:35.416Z,5.80
2023-05-24T05:41:26.740Z,6.10
2023-05-24T05:44:16.207Z,5.60
2023-05-24T05:47:07.672Z,5.70
2023-05-24T05:49:56.517Z,5.90
2023-05-24T05:52:44.522Z,5.10
2023-05-24T05:55:32.349Z,6.00
2023-05-24T05:58:20.594Z,5.60
2023-05-24T06:01:08.669Z,6.10
2023-05-24T06:03:57.356Z,5.80
2023-05-24T06:06:49.814Z,5.80
2023-05-24T06:09:38.595Z,6.60
2023-05-24T06:12:27.055Z,5.40
2023-05-24T06:15:18.661Z,6.10
2023-05-24T06:18:07.566Z,6.10
2023-05-24T06:20:56.604Z,5.80
2023-05-24T06:23:46.903Z,5.60
2023-05-24T06:26:34.960Z,6.20
2023-05-24T06:29:25.321Z,6.80
2023-05-24T06:32:14.175Z,5.40
2023-05-24T06:35:02.584Z,6.10
2023-05-24T06:37:53.252Z,6.20
2023-05-24T06:40:41.967Z,5.90
2023-05-24T06:43:30.940Z,5.30
2023-05-24T06:46:19.488Z,15.10
2023-05-24T06:49:08.880Z,7.70
2023-05-24T06:51:59.414Z,6.20
2023-05-24T06:54:50.458Z,5.70
2023-05-24T06:57:39.413Z,6.30
2023-05-24T07:00:28.050Z,6.40
2023-05-24T07:03:17.080Z,5.70
2023-05-24T07:06:05.384Z,5.60
2023-05-24T07:08:53.720Z,5.40
2023-05-24T07:11:42.088Z,5.60
2023-05-24T07:14:30.988Z,4.50
2023-05-24T07:17:19.361Z,5.10
2023-05-24T07:20:11.574Z,4.90
2023-05-24T07:23:01.490Z,4.60
2023-05-24T07:25:49.708Z,5.40
2023-05-24T07:28:39.152Z,4.90
2023-05-24T07:31:27.854Z,4.30
2023-05-24T07:34:17.391Z,4.00
2023-05-24T07:37:06.938Z,4.10
2023-05-24T07:39:55.778Z,4.10
2023-05-24T07:42:43.913Z,4.10
2023-05-24T07:45:32.483Z,4.20
2023-05-24T07:48:21.885Z,3.90
2023-05-24T07:51:10.046Z,3.40
2023-05-24T07:53:59.508Z,3.70
2023-05-24T07:56:47.721Z,3.60
2023-05-24T07:59:36.433Z,3.30
2023-05-24T08:02:27.271Z,3.80
2023-05-24T08:05:17.031Z,3.50
2023-05-24T08:08:06.558Z,2.90
2023-05-24T08:10:55.929Z,2.90
2023-05-24T08:13:45.362Z,8.10
2023-05-24T08:16:33.520Z,3.00
2023-05-24T08:19:21.620Z,3.10
2023-05-24T08:22:10.299Z,3.30
2023-05-24T08:25:00.173Z,3.20
2023-05-24T08:27:48.764Z,3.00
2023-05-24T08:30:37.440Z,3.40
2023-05-24T08:33:26.294Z,3.00
2023-05-24T08:36:14.664Z,2.50
2023-05-24T08:39:03.146Z,2.50
2023-05-24T08:42:01.327Z,2.50
2023-05-24T08:45:16.417Z,2.30
2023-05-24T08:48:09.377Z,2.90
2023-05-24T08:50:59.608Z,3.00
2023-05-24T08:53:50.404Z,3.00
2023-05-24T08:56:40.200Z,3.20
2023-05-24T08:59:28.199Z,3.40
2023-05-24T09:02:17.737Z,3.20
2023-05-24T09:05:10.694Z,3.00
2023-05-24T09:08:01.545Z,3.60
2023-05-24T09:10:55.283Z,6.70
2023-05-24T09:13:45.812Z,5.40
2023-05-24T09:16:34.697Z,3.20
2023-05-24T09:19:23.267Z,11.10
2023-05-24T09:22:14.557Z,3.80
2023-05-24T09:25:04.776Z,2.80
2023-05-24T09:27:54.478Z,3.20
2023-05-24T09:30:58.651Z,2.60
2023-05-24T09:33:49.449Z,3.00
2023-05-24T09:36:43.202Z,2.60
2023-05-24T09:39:32.324Z,2.90
2023-05-24T09:42:28.157Z,2.50
2023-05-24T09:45:17.673Z,3.30
2023-05-24T09:48:12.674Z,2.60
2023-05-24T09:51:09.766Z,3.70
2023-05-24T09:54:01.764Z,3.00
2023-05-24T09:56:53.325Z,3.10
2023-05-24T09:59:43.204Z,2.90
2023-05-24T10:02:41.514Z,2.80
2023-05-24T10:05:44.949Z,3.10
2023-05-24T10:08:38.254Z,3.20
2023-05-24T10:11:27.717Z,3.10
2023-05-24T10:14:18.170Z,3.30
2023-05-24T10:17:08.776Z,3.10
2023-05-24T10:19:57.435Z,3.10
2023-05-24T10:22:51.844Z,3.00
2023-05-24T10:25:51.405Z,3.30
2023-05-24T10:28:49.355Z,3.20
2023-05-24T10:31:41.520Z,3.00
2023-05-24T10:34:31.092Z,3.30
2023-05-24T10:37:21.567Z,3.40
2023-05-24T10:40:21.357Z,3.40
2023-05-24T10:43:10.614Z,3.80
2023-05-24T10:45:59.352Z,4.00
2023-05-24T10:49:01.629Z,3.30
2023-05-24T10:51:50.752Z,3.40
2023-05-24T10:54:44.761Z,3.30
2023-05-24T10:57:41.996Z,3.20
2023-05-24T11:00:48.348Z,3.20
2023-05-24T11:03:41.817Z,3.30
2023-05-24T11:07:03.953Z,3.10
2023-05-24T11:09:59.957Z,3.40
2023-05-24T11:13:04.325Z,3.40
2023-05-24T11:15:52.798Z,3.50
2023-05-24T11:18:56.263Z,3.50
2023-05-24T11:21:47.327Z,3.80
2023-05-24T11:24:37.676Z,3.60
2023-05-24T11:27:26.254Z,3.60
2023-05-24T11:30:16.515Z,3.60
2023-05-24T11:33:04.424Z,3.40
2023-05-24T11:35:55.537Z,3.80
2023-05-24T11:38:43.755Z,3.90
2023-05-24T11:41:38.298Z,3.70
2023-05-24T11:44:31.800Z,3.80
2023-05-24T11:47:22.519Z,3.40
2023-05-24T11:50:17.020Z,3.70
2023-05-24T11:53:05.754Z,3.70
2023-05-24T11:55:54.998Z,3.90
2023-05-24T11:58:51.041Z,3.80
2023-05-24T12:01:41.774Z,3.90
2023-05-24T12:04:31.574Z,3.90
2023-05-24T12:07:19.689Z,4.00
2023-05-24T12:10:10.637Z,4.20
2023-05-24T12:12:59.306Z,4.50
2023-05-24T12:15:53.872Z,4.20
2023-05-24T12:18:55.062Z,3.90
2023-05-24T12:21:55.655Z,4.20
2023-05-24T12:24:49.368Z,4.00
2023-05-24T12:27:48.125Z,4.20
2023-05-24T12:30:43.425Z,4.30
2023-05-24T12:33:34.182Z,4.70
2023-05-24T12:36:22.635Z,4.60
2023-05-24T12:39:32.143Z,4.60
2023-05-24T12:42:23.979Z,4.20
2023-05-24T12:45:13.193Z,4.40
2023-05-24T12:48:03.168Z,4.90
2023-05-24T12:50:51.863Z,4.90
2023-05-24T12:53:39.987Z,4.70
2023-05-24T12:56:28.960Z,3.90
2023-05-24T12:59:17.065Z,3.90
2023-05-24T13:02:05.413Z,4.20
2023-05-24T13:04:53.420Z,4.20
2023-05-24T13:07:45.287Z,4.40
2023-05-24T13:10:33.424Z,4.60
2023-05-24T13:13:22.012Z,4.90
2023-05-24T13:16:10.999Z,4.30
2023-05-24T13:18:59.966Z,5.60
2023-05-24T13:21:48.114Z,4.60
2023-05-24T13:24:37.035Z,4.90
2023-05-24T13:27:25.352Z,4.40
2023-05-24T13:30:14.800Z,5.00
2023-05-24T13:33:03.206Z,4.80
2023-05-24T13:35:52.725Z,5.00
2023-05-24T13:38:43.430Z,5.10
2023-05-24T13:41:32.029Z,5.10
2023-05-24T13:44:20.266Z,4.60
2023-05-24T13:47:08.815Z,4.80
2023-05-24T13:49:57.519Z,4.60
2023-05-24T13:52:48.216Z,5.60
2023-05-24T13:55:40.548Z,4.80
2023-05-24T13:58:29.067Z,4.60
2023-05-24T14:01:16.952Z,4.40
2023-05-24T14:04:06.380Z,5.00
2023-05-24T14:06:55.156Z,5.10
2023-05-24T14:09:43.446Z,4.70
2023-05-24T14:12:32.233Z,5.00
2023-05-24T14:15:20.129Z,5.00
2023-05-24T14:18:08.910Z,4.70
2023-05-24T14:20:57.141Z,5.10
2023-05-24T14:23:47.097Z,4.30
2023-05-24T14:26:35.510Z,4.80
2023-05-24T14:29:23.746Z,4.60
2023-05-24T14:32:11.956Z,4.50
2023-05-24T14:35:00.142Z,5.00
2023-05-24T14:37:48.307Z,4.70
2023-05-24T14:40:39.850Z,4.60
2023-05-24T14:43:29.722Z,4.80
2023-05-24T14:46:18.066Z,5.00
2023-05-24T14:49:06.457Z,4.30
2023-05-24T14:51:54.670Z,4.90
2023-05-24T14:54:43.120Z,4.60
2023-05-24T14:57:32.057Z,4.20
2023-05-24T15:00:22.761Z,4.60
2023-05-24T15:03:14.767Z,4.40
2023-05-24T15:06:04.859Z,4.20
2023-05-24T15:08:52.826Z,4.00
2023-05-24T15:11:41.606Z,4.10
2023-05-24T15:14:29.768Z,4.80
2023-05-24T15:17:20.948Z,5.00
2023-05-24T15:20:12.512Z,4.60
2023-05-24T15:23:01.198Z,4.40
2023-05-24T15:25:49.130Z,4.80
2023-05-24T15:28:37.402Z,4.50
2023-05-24T15:31:26.144Z,4.20
2023-05-24T15:34:14.209Z,4.10
2023-05-24T15:37:02.292Z,4.70
2023-05-24T15:39:52.651Z,4.50
2023-05-24T15:42:41.075Z,4.90
2023-05-24T15:45:29.601Z,4.00
2023-05-24T15:48:17.663Z,5.00
2023-05-24T15:53:58.886Z,4.60
2023-05-24T15:56:47.078Z,6.30
2023-05-24T15:59:36.996Z,6.70
2023-05-24T16:02:25.500Z,5.40
2023-05-24T16:05:14.630Z,5.10
2023-05-24T16:08:02.784Z,4.40
2023-05-24T16:10:51.911Z,4.90
2023-05-24T16:13:39.507Z,4.70
2023-05-24T16:16:28.962Z,4.30
2023-05-24T16:19:17.081Z,4.60
2023-05-24T16:22:07.328Z,4.50
2023-05-24T16:24:55.895Z,4.80
2023-05-24T16:27:44.468Z,4.70
2023-05-24T16:30:33.259Z,5.10
2023-05-24T16:33:25.442Z,4.50
2023-05-24T16:36:13.538Z,5.00
2023-05-24T16:39:01.468Z,4.50
2023-05-24T16:41:50.127Z,4.50
2023-05-24T16:44:38.856Z,4.60
2023-05-24T16:47:29.570Z,4.70
2023-05-24T16:50:18.114Z,4.60
2023-05-24T16:53:06.879Z,5.40
2023-05-24T16:55:56.416Z,5.30
2023-05-24T16:58:44.433Z,5.20
2023-05-24T17:01:32.469Z,4.80
2023-05-24T17:04:22.396Z,4.60
2023-05-24T17:07:10.839Z,4.20
2023-05-24T17:09:59.034Z,5.00
2023-05-24T17:12:47.687Z,4.80
2023-05-24T17:15:36.188Z,4.50
2023-05-24T17:18:28.612Z,4.10
2023-05-24T17:21:17.453Z,4.60
2023-05-24T17:24:05.672Z,4.50
2023-05-24T17:26:55.243Z,4.60
2023-05-24T17:29:45.019Z,4.50
2023-05-24T17:32:33.831Z,7.40
2023-05-24T17:35:22.257Z,5.50
2023-05-24T17:38:10.351Z,5.10
2023-05-24T17:41:01.803Z,4.50
2023-05-24T17:43:50.652Z,5.20
2023-05-24T17:46:41.278Z,4.70
2023-05-24T17:49:30.354Z,4.60
2023-05-24T17:52:18.364Z,4.60
2023-05-24T17:55:07.671Z,4.70
2023-05-24T17:57:56.825Z,4.90
2023-05-24T18:00:45.361Z,4.90
2023-05-24T18:03:37.244Z,5.00
2023-05-24T18:06:26.390Z,4.50
2023-05-24T18:09:16.525Z,4.50
2023-05-24T18:12:06.004Z,4.40
2023-05-24T18:14:54.565Z,4.80
2023-05-24T18:17:44.116Z,4.30
2023-05-24T18:20:32.677Z,5.50
2023-05-24T18:23:22.677Z,4.60
2023-05-24T18:26:12.581Z,4.90
2023-05-24T18:29:00.681Z,5.00
2023-05-24T18:31:49.713Z,5.00
2023-05-24T18:34:37.483Z,5.70
2023-05-24T18:37:27.090Z,5.30
2023-05-24T18:40:18.195Z,4.60
2023-05-24T18:43:06.519Z,5.30
2023-05-24T18:45:57.961Z,5.10
2023-05-24T18:48:46.595Z,4.90
2023-05-24T18:51:34.857Z,5.20
2023-05-24T18:54:23.648Z,6.50
2023-05-24T18:57:12.725Z,5.70
2023-05-24T19:00:01.380Z,5.80
2023-05-24T19:02:49.833Z,17.40
2023-05-24T19:05:40.608Z,6.20
2023-05-24T19:08:31.390Z,5.60
2023-05-24T19:11:19.523Z,5.70
2023-05-24T19:14:08.244Z,6.10
2023-05-24T19:16:57.763Z,6.30
2023-05-24T19:19:46.759Z,5.40
2023-05-24T19:22:35.112Z,5.70
2023-05-24T19:25:24.527Z,5.20
2023-05-24T19:28:13.164Z,5.10
2023-05-24T19:31:02.800Z,5.30
2023-05-24T19:34:00.478Z,5.00
2023-05-24T19:36:49.481Z,5.20
2023-05-24T19:39:38.640Z,5.40
2023-05-24T19:42:27.119Z,5.80
2023-05-24T19:45:15.675Z,5.50
2023-05-24T19:48:05.265Z,4.70
2023-05-24T19:50:54.182Z,4.90
2023-05-24T19:53:44.735Z,5.70
2023-05-24T19:56:33.713Z,5.50
2023-05-24T19:59:21.993Z,5.30
2023-05-24T20:02:11.049Z,5.30
2023-05-24T20:04:59.690Z,5.90
2023-05-24T20:07:48.108Z,5.40
2023-05-24T20:10:40.198Z,5.90
2023-05-24T20:13:28.476Z,6.10
2023-05-24T20:16:16.783Z,5.60
2023-05-24T20:19:05.035Z,6.40
2023-05-24T20:21:53.694Z,5.90
2023-05-24T20:24:42.427Z,6.00
2023-05-24T20:27:31.180Z,6.10
2023-05-24T20:30:19.865Z,5.80
2023-05-24T20:33:09.442Z,6.00
2023-05-24T20:35:59.076Z,5.90
2023-05-24T20:38:49.343Z,6.50
2023-05-24T20:41:37.754Z,6.00
2023-05-24T20:44:26.712Z,5.80
2023-05-24T20:47:19.249Z,5.70
2023-05-24T20:50:08.887Z,6.50
2023-05-24T20:52:58.177Z,6.20
2023-05-24T20:55:46.882Z,5.60
2023-05-24T20:58:41.418Z,5.40
2023-05-24T21:01:29.771Z,6.20
2023-05-24T21:04:19.640Z,5.90
2023-05-24T21:07:08.419Z,6.30
2023-05-24T21:09:56.622Z,5.60
2023-05-24T21:12:45.310Z,5.90
2023-05-24T21:15:35.622Z,5.70
2023-05-24T21:18:26.104Z,6.30
2023-05-24T21:21:14.355Z,6.20
2023-05-24T21:24:03.128Z,6.70
2023-05-24T21:26:51.545Z,6.40
2023-05-24T21:29:42.015Z,6.10
2023-05-24T21:32:30.455Z,5.50
2023-05-24T21:35:19.345Z,6.50
2023-05-24T21:38:07.398Z,6.10
2023-05-24T21:40:56.573Z,6.30
2023-05-24T21:43:45.113Z,7.00
2023-05-24T21:46:34.333Z,6.30
2023-05-24T21:49:22.446Z,6.80
2023-05-24T21:52:10.491Z,6.00
2023-05-24T21:54:59.026Z,6.00
2023-05-24T21:57:47.477Z,6.20
2023-05-24T22:00:35.491Z,6.70
2023-05-24T22:03:23.950Z,6.60
2023-05-24T22:06:12.391Z,6.20
2023-05-24T22:09:02.292Z,6.70
2023-05-24T22:11:50.690Z,6.20
2023-05-24T22:14:39.186Z,6.00
2023-05-24T22:17:29.349Z,7.30
2023-05-24T22:20:17.356Z,6.30
2023-05-24T22:23:06.495Z,5.70
2023-05-24T22:25:54.800Z,6.70
2023-05-24T22:28:56.564Z,6.20
2023-05-24T22:31:44.652Z,7.50
2023-05-24T22:34:33.096Z,7.20
2023-05-24T22:37:21.360Z,7.10
2023-05-24T22:40:11.518Z,6.90
2023-05-24T22:42:59.570Z,6.80
2023-05-24T22:45:48.741Z,7.40
2023-05-24T22:48:37.809Z,6.70
2023-05-24T22:51:26.380Z,7.00
2023-05-24T22:54:16.396Z,6.50
2023-05-24T22:57:05.793Z,7.60
2023-05-24T22:59:54.201Z,7.40
2023-05-24T23:02:42.810Z,7.30
2023-05-24T23:05:31.559Z,7.60
2023-05-24T23:08:21.750Z,7.10
2023-05-24T23:11:13.439Z,6.80
2023-05-24T23:14:02.530Z,7.30
2023-05-24T23:16:51.093Z,6.70
2023-05-24T23:19:46.603Z,7.60
2023-05-24T23:22:37.634Z,8.10
2023-05-24T23:25:26.301Z,7.20
2023-05-24T23:28:14.443Z,7.80
2023-05-24T23:31:03.025Z,8.10
2023-05-24T23:33:52.470Z,8.30
2023-05-24T23:36:40.926Z,7.30
2023-05-24T23:39:28.799Z,7.60
2023-05-24T23:42:16.964Z,8.10
2023-05-24T23:45:06.476Z,7.80
2023-05-24T23:47:54.753Z,7.70
2023-05-24T23:50:53.044Z,8.50
2023-05-24T23:53:42.175Z,7.80
2023-05-24T23:56:31.850Z,7.80
2023-05-24T23:59:19.903Z,7.40
